Time;durP1;ratioP1;P1;durP2;ratioP2;P2;SDS_P1;SDS_P2;PMS_P1;PMS_P2;Temp;Humidity;BMP_temperature;BMP_pressure;BME280_temperature;BME280_humidity;BME280_pressure;Samples;Min_cycle;Max_cycle;Signal;HPM_P1;HPM_P2
2021/12/06 00:01:23;;;;;;;35.80;22.65;;;;;;;2.72;99.05;101069.94;5052940;28;20116;-60
2021/12/06 00:03:57;;;;;;;37.60;23.02;;;;;;;2.63;98.68;101064.09;5053071;28;20040;-60
2021/12/06 00:06:25;;;;;;;33.67;21.13;;;;;;;2.69;98.73;101075.94;5053068;28;20487;-60
2021/12/06 00:08:51;;;;;;;34.67;21.52;;;;;;;2.78;98.85;101090.84;5052745;28;20457;-60
2021/12/06 00:11:16;;;;;;;34.70;21.10;;;;;;;2.76;98.96;101090.25;5052738;28;20033;-60
2021/12/06 00:13:45;;;;;;;33.90;21.25;;;;;;;2.75;99.00;101088.59;5053769;28;20043;-59
2021/12/06 00:16:17;;;;;;;32.30;20.30;;;;;;;2.78;99.05;101088.09;5056793;28;20431;-60
2021/12/06 00:18:43;;;;;;;36.88;23.35;;;;;;;2.78;98.88;101092.72;5057088;28;20096;-60
2021/12/06 00:21:09;;;;;;;32.88;21.10;;;;;;;2.78;98.89;101095.47;5056261;28;20112;-60
2021/12/06 00:23:35;;;;;;;37.60;22.77;;;;;;;2.75;98.45;101094.06;5056659;28;20108;-61
2021/12/06 00:26:02;;;;;;;35.55;23.17;;;;;;;2.75;98.35;101095.94;5055651;28;20033;-60
2021/12/06 00:28:27;;;;;;;35.75;23.10;;;;;;;2.72;98.59;101097.28;5057222;28;20087;-60
2021/12/06 00:30:54;;;;;;;33.97;20.48;;;;;;;2.70;99.38;101096.69;5056610;28;20025;-60
2021/12/06 00:33:20;;;;;;;34.28;21.05;;;;;;;2.77;98.83;101110.19;5056844;28;20021;-60
2021/12/06 00:35:46;;;;;;;36.83;24.30;;;;;;;2.78;98.64;101112.69;5056457;28;20476;-59
2021/12/06 00:38:11;;;;;;;37.78;23.42;;;;;;;2.79;98.74;101108.03;5056719;28;20043;-59
2021/12/06 00:40:46;;;;;;;34.92;22.70;;;;;;;2.77;99.06;101108.31;5056371;28;20388;-59
2021/12/06 00:43:12;;;;;;;35.53;22.08;;;;;;;2.76;99.20;101114.84;5056372;28;20085;-59
2021/12/06 00:45:38;;;;;;;34.35;21.10;;;;;;;2.74;98.59;101116.16;5056446;28;20422;-58
2021/12/06 00:48:03;;;;;;;34.72;21.08;;;;;;;2.72;98.77;101110.94;5056273;28;20571;-59
2021/12/06 00:50:34;;;;;;;36.15;22.60;;;;;;;2.63;98.89;101113.25;5055126;28;20029;-60
2021/12/06 00:52:59;;;;;;;41.15;26.80;;;;;;;2.68;99.07;101130.78;5055307;28;20029;-58
2021/12/06 00:55:25;;;;;;;33.35;20.67;;;;;;;2.65;98.50;101134.84;5055585;28;20171;-58
2021/12/06 00:57:53;;;;;;;33.55;20.92;;;;;;;2.69;99.12;101141.50;5056231;28;20025;-60
2021/12/06 01:00:25;;;;;;;33.72;20.58;;;;;;;2.65;98.68;101140.31;5056124;28;20025;-59
2021/12/06 01:02:52;;;;;;;35.80;21.63;;;;;;;2.68;98.69;101158.13;5055957;28;20075;-57
2021/12/06 01:05:22;;;;;;;34.85;21.35;;;;;;;2.69;98.75;101159.78;5055768;28;20472;-58
2021/12/06 01:07:47;;;;;;;37.47;22.35;;;;;;;2.70;99.02;101164.97;5056062;28;20112;-58
2021/12/06 01:10:13;;;;;;;38.40;24.08;;;;;;;2.70;99.00;101164.16;5055741;28;20108;-59
2021/12/06 01:12:38;;;;;;;37.28;22.08;;;;;;;2.69;98.24;101173.44;5055922;28;20040;-59
2021/12/06 01:15:06;;;;;;;36.60;22.65;;;;;;;2.63;98.72;101172.50;5055751;28;20472;-58
2021/12/06 01:17:31;;;;;;;37.78;22.98;;;;;;;2.59;99.24;101188.56;5055722;28;20021;-59
2021/12/06 01:19:56;;;;;;;36.97;21.90;;;;;;;2.56;99.40;101180.03;5055486;28;20057;-59
2021/12/06 01:22:28;;;;;;;37.28;23.02;;;;;;;2.54;99.71;101182.16;5055342;28;20031;-60
2021/12/06 01:24:59;;;;;;;35.70;22.08;;;;;;;2.55;99.29;101172.91;5054993;28;20029;-59
2021/12/06 01:27:42;;;;;;;36.95;23.05;;;;;;;2.53;99.22;101164.97;5055309;28;20428;-59
2021/12/06 01:30:36;;;;;;;38.78;22.77;;;;;;;2.53;99.03;101164.13;5055352;28;20369;-60
2021/12/06 01:33:31;;;;;;;36.63;22.55;;;;;;;2.50;99.49;101166.25;5055902;28;20090;-60
2021/12/06 01:41:19;;;;;;;38.47;22.63;;;;;;;2.49;99.62;101175.56;5055386;28;20134;-60
2021/12/06 01:44:07;;;;;;;36.78;22.15;;;;;;;2.52;99.10;101187.88;5054382;28;20021;-59
2021/12/06 01:46:34;;;;;;;36.42;22.83;;;;;;;2.50;99.09;101188.09;5055140;28;20044;-61
2021/12/06 01:49:00;;;;;;;37.65;22.40;;;;;;;2.51;99.48;101191.69;5054937;28;20032;-60
2021/12/06 01:51:26;;;;;;;38.08;21.92;;;;;;;2.49;99.50;101185.63;5055184;28;20108;-60
2021/12/06 01:53:51;;;;;;;40.80;23.48;;;;;;;2.48;98.86;101190.28;5055112;28;20394;-60
2021/12/06 01:56:16;;;;;;;36.30;22.20;;;;;;;2.46;99.65;101186.09;5055146;28;20025;-59
2021/12/06 01:58:43;;;;;;;38.25;23.30;;;;;;;2.46;99.93;101194.31;5054962;28;20488;-60
2021/12/06 02:01:09;;;;;;;36.45;21.50;;;;;;;2.45;99.20;101198.94;5054851;28;20095;-60
2021/12/06 02:03:34;;;;;;;39.20;23.73;;;;;;;2.46;99.22;101197.88;5054861;28;20476;-60
2021/12/06 02:06:00;;;;;;;39.45;23.20;;;;;;;2.47;99.51;101202.28;5054853;28;20056;-60
2021/12/06 02:08:26;;;;;;;38.42;22.70;;;;;;;2.48;99.52;101200.34;5054814;28;20041;-60
2021/12/06 02:10:59;;;;;;;38.47;22.80;;;;;;;2.45;99.46;101196.22;5054722;28;20025;-60
2021/12/06 02:13:24;;;;;;;37.35;23.42;;;;;;;2.45;99.49;101198.94;5054833;28;20085;-60
2021/12/06 02:15:53;;;;;;;37.45;22.02;;;;;;;2.45;99.53;101204.41;5054632;28;20472;-60
2021/12/06 02:21:09;;;;;;;;;;;;;;;2.49;99.44;101202.88;5055376;28;20460;-59
2021/12/06 02:23:34;;;;;;;37.38;21.77;;;;;;;2.47;99.04;101207.72;5054573;28;19936;-59
2021/12/06 02:25:59;;;;;;;38.53;21.85;;;;;;;2.48;99.02;101205.81;5054446;28;20025;-59
2021/12/06 02:28:25;;;;;;;37.55;23.58;;;;;;;2.49;99.19;101202.88;5053169;28;20033;-59
2021/12/06 02:30:50;;;;;;;38.58;23.85;;;;;;;2.49;99.84;101211.06;5054418;28;20482;-59
2021/12/06 02:33:16;;;;;;;38.17;23.52;;;;;;;2.46;99.29;101206.06;5054362;28;20128;-59
2021/12/06 02:35:42;;;;;;;38.17;23.40;;;;;;;2.44;99.80;101207.41;5054290;28;20151;-60
2021/12/06 02:38:08;;;;;;;38.53;22.58;;;;;;;2.44;99.39;101216.41;5054386;28;20104;-60
2021/12/06 02:40:35;;;;;;;38.10;22.55;;;;;;;2.45;99.32;101219.97;5054295;28;20051;-60
2021/12/06 02:43:02;;;;;;;38.00;22.55;;;;;;;2.41;99.17;101219.59;5053913;28;20036;-60
2021/12/06 02:45:28;;;;;;;37.17;23.15;;;;;;;2.44;99.50;101224.59;5053963;28;20083;-60
2021/12/06 02:47:56;;;;;;;37.60;22.23;;;;;;;2.42;98.84;101226.72;5054295;28;20491;-60
2021/12/06 02:50:25;;;;;;;38.55;22.45;;;;;;;2.38;99.37;101222.84;5054089;28;20017;-60
2021/12/06 02:52:51;;;;;;;38.63;23.27;;;;;;;2.45;99.62;101236.38;5053927;28;20365;-60
2021/12/06 02:55:52;;;;;;;39.08;22.48;;;;;;;2.44;99.04;101249.19;5054127;28;20416;-60
2021/12/06 02:58:55;;;;;;;38.85;22.90;;;;;;;2.42;99.49;101237.66;5054413;28;20037;-60
2021/12/06 03:01:09;;;;;;;41.15;21.58;;;;;;;2.49;99.37;101252.03;5053803;28;20527;-59
2021/12/06 03:03:34;;;;;;;39.97;22.70;;;;;;;2.47;99.70;101245.97;5053899;28;20029;-60
2021/12/06 03:05:59;;;;;;;39.83;22.85;;;;;;;2.44;99.16;101249.19;5053738;28;20036;-60
2021/12/06 03:08:39;;;;;;;38.35;21.95;;;;;;;2.43;99.14;101250.25;5053655;28;20468;-60
2021/12/06 03:11:07;;;;;;;40.80;23.38;;;;;;;2.41;99.37;101246.91;5053840;28;20054;-60
2021/12/06 03:13:32;;;;;;;39.25;23.05;;;;;;;2.39;99.16;101251.81;5053603;28;20037;-59
2021/12/06 03:15:58;;;;;;;39.58;22.80;;;;;;;2.40;99.63;101244.44;5053585;28;20029;-60
2021/12/06 03:18:23;;;;;;;37.80;22.60;;;;;;;2.40;99.93;101250.75;5053237;28;20479;-60
2021/12/06 03:20:49;;;;;;;40.88;23.20;;;;;;;2.41;99.86;101243.38;5053208;28;20107;-59
2021/12/06 03:23:14;;;;;;;39.92;23.05;;;;;;;2.40;99.66;101258.09;5053480;28;20024;-60
2021/12/06 03:25:39;;;;;;;37.90;22.52;;;;;;;2.44;99.40;101251.09;5053282;28;20037;-60
2021/12/06 03:28:05;;;;;;;38.08;22.13;;;;;;;2.47;99.62;101256.03;5053544;28;20056;-60
2021/12/06 03:30:30;;;;;;;37.25;22.75;;;;;;;2.45;99.48;101253.56;5053247;28;20021;-60
2021/12/06 03:32:55;;;;;;;37.67;23.48;;;;;;;2.45;98.95;101250.84;5053254;28;20023;-60
2021/12/06 03:35:20;;;;;;;38.95;22.52;;;;;;;2.47;99.90;101247.84;5053446;28;20056;-60
2021/12/06 03:37:46;;;;;;;39.17;23.25;;;;;;;2.46;99.15;101251.66;5053218;28;20432;-60
2021/12/06 03:40:12;;;;;;;39.88;24.02;;;;;;;2.45;99.13;101258.22;5051762;28;20039;-60
2021/12/06 03:42:38;;;;;;;38.22;23.33;;;;;;;2.42;99.56;101253.22;5053099;28;20108;-61
2021/12/06 03:45:06;;;;;;;38.97;23.95;;;;;;;2.41;99.78;101260.56;5053149;28;20056;-61
2021/12/06 03:47:32;;;;;;;39.67;23.60;;;;;;;2.39;99.17;101256.44;5053021;28;20025;-60
2021/12/06 03:49:59;;;;;;;41.25;22.88;;;;;;;2.39;99.03;101262.72;5052641;28;20487;-60
2021/12/06 03:52:25;;;;;;;38.20;23.42;;;;;;;2.38;99.35;101271.16;5051875;28;20473;-60
2021/12/06 03:54:51;;;;;;;38.65;23.00;;;;;;;2.39;99.49;101270.94;5053220;28;20056;-60
2021/12/06 03:57:17;;;;;;;40.42;23.13;;;;;;;2.39;99.43;101278.28;5053130;28;20057;-62
2021/12/06 03:59:43;;;;;;;39.78;23.77;;;;;;;2.38;99.87;101272.00;5053087;28;20025;-61
2021/12/06 04:02:08;;;;;;;38.75;22.88;;;;;;;2.37;99.49;101270.34;5052820;28;20365;-60
2021/12/06 04:04:35;;;;;;;39.47;23.10;;;;;;;2.33;100.00;101266.41;5052823;28;20155;-59
2021/12/06 04:07:00;;;;;;;40.45;23.67;;;;;;;2.32;99.49;101262.84;5052972;28;20380;-60
2021/12/06 04:09:25;;;;;;;43.10;23.25;;;;;;;2.28;99.46;101260.84;5053334;28;20066;-60
2021/12/06 04:11:51;;;;;;;39.30;23.05;;;;;;;2.32;99.49;101260.13;5052549;28;20482;-59
2021/12/06 04:14:17;;;;;;;40.95;23.50;;;;;;;2.32;99.71;101260.13;5052695;28;20490;-60
2021/12/06 04:16:43;;;;;;;41.58;23.42;;;;;;;2.30;99.92;101264.19;5052808;28;20036;-59
2021/12/06 04:19:09;;;;;;;39.50;23.20;;;;;;;2.29;99.82;101268.78;5052843;28;20021;-59
2021/12/06 04:21:36;;;;;;;39.78;23.90;;;;;;;2.29;99.69;101270.72;5051458;28;20076;-59
2021/12/06 04:24:02;;;;;;;37.63;22.58;;;;;;;2.32;99.56;101271.06;5052884;28;20075;-59
2021/12/06 04:26:28;;;;;;;39.35;23.02;;;;;;;2.33;100.00;101277.34;5052720;28;20413;-60
2021/12/06 04:29:01;;;;;;;40.60;23.45;;;;;;;2.34;100.00;101279.00;5052712;28;20106;-60
2021/12/06 04:31:30;;;;;;;42.40;24.58;;;;;;;2.30;99.60;101270.47;5052746;28;20029;-59
2021/12/06 04:33:56;;;;;;;38.42;22.48;;;;;;;2.38;99.95;101276.59;5051411;28;20541;-60
2021/12/06 04:36:21;;;;;;;40.95;23.67;;;;;;;2.37;99.50;101270.34;5052712;28;20468;-60
2021/12/06 04:38:46;;;;;;;38.40;23.75;;;;;;;2.34;99.58;101268.91;5052675;28;20123;-63
2021/12/06 04:41:12;;;;;;;37.90;22.85;;;;;;;2.33;99.17;101283.63;5052269;28;20090;-61
2021/12/06 04:43:37;;;;;;;39.67;22.35;;;;;;;2.32;99.57;101273.78;5052157;28;20110;-58
2021/12/06 04:46:03;;;;;;;38.45;23.27;;;;;;;2.28;99.13;101275.31;5051100;28;20029;-58
2021/12/06 04:48:28;;;;;;;38.92;22.52;;;;;;;2.26;99.31;101282.94;5052055;28;20021;-60
2021/12/06 04:50:54;;;;;;;39.55;23.17;;;;;;;2.21;99.12;101279.28;5052317;28;20468;-60
2021/12/06 04:53:23;;;;;;;39.67;23.17;;;;;;;2.10;99.15;101270.84;5052806;28;20033;-61
2021/12/06 04:55:58;;;;;;;38.67;22.77;;;;;;;1.99;98.34;101275.22;5052423;28;20024;-60
2021/12/06 04:58:28;;;;;;;40.05;22.48;;;;;;;1.92;98.90;101271.78;5052397;28;20037;-59
2021/12/06 05:01:03;;;;;;;39.03;23.67;;;;;;;1.88;98.31;101281.53;5053349;28;20021;-60
2021/12/06 05:03:30;;;;;;;41.00;22.95;;;;;;;1.83;99.03;101295.91;5054797;28;20112;-63
2021/12/06 05:06:00;;;;;;;39.13;22.90;;;;;;;1.73;99.11;101292.06;5055970;28;20029;-60
2021/12/06 05:08:32;;;;;;;40.80;23.23;;;;;;;1.69;98.93;101291.72;5056107;28;20413;-60
2021/12/06 05:10:59;;;;;;;38.92;23.98;;;;;;;1.61;99.61;101297.53;5056082;28;20041;-59
2021/12/06 05:13:25;;;;;;;39.55;23.42;;;;;;;1.51;99.51;101296.19;5054450;28;20440;-60
2021/12/06 05:15:51;;;;;;;40.53;24.85;;;;;;;1.40;99.64;101295.13;5055658;28;20036;-59
2021/12/06 05:18:16;;;;;;;40.97;24.27;;;;;;;1.35;99.59;101300.44;5055562;28;20025;-61
2021/12/06 05:20:42;;;;;;;38.65;22.33;;;;;;;1.30;99.90;101299.47;5055665;28;20132;-61
2021/12/06 05:23:09;;;;;;;40.35;23.42;;;;;;;1.23;100.00;101299.56;5055450;28;20353;-61
2021/12/06 05:25:35;;;;;;;38.08;22.02;;;;;;;1.18;99.73;101302.97;5055584;28;20036;-61
2021/12/06 05:28:01;;;;;;;40.17;23.65;;;;;;;1.15;99.41;101314.34;5055590;28;20036;-61
2021/12/06 05:30:28;;;;;;;38.28;23.42;;;;;;;1.15;100.00;101319.81;5055445;28;20029;-61
2021/12/06 05:32:58;;;;;;;42.55;24.60;;;;;;;1.04;99.97;101309.69;5055552;28;20582;-60
2021/12/06 05:35:23;;;;;;;41.28;24.17;;;;;;;1.01;99.90;101319.16;5055553;28;20071;-61
2021/12/06 05:37:53;;;;;;;42.30;24.30;;;;;;;0.96;99.77;101324.44;5055384;28;20025;-61
2021/12/06 05:40:24;;;;;;;42.08;24.75;;;;;;;0.85;99.75;101311.63;5054847;28;20049;-61
2021/12/06 05:42:49;;;;;;;38.47;23.23;;;;;;;0.85;100.00;101317.91;5055246;28;20025;-60
2021/12/06 05:45:17;;;;;;;39.35;22.60;;;;;;;0.74;99.73;101300.44;5055123;28;20051;-60
2021/12/06 05:47:42;;;;;;;40.38;24.48;;;;;;;0.77;99.99;101312.75;5055126;28;20032;-61
2021/12/06 05:50:08;;;;;;;38.50;24.08;;;;;;;0.72;100.00;101299.00;5055333;28;20025;-61
2021/12/06 05:52:34;;;;;;;40.58;23.92;;;;;;;0.70;100.00;101301.94;5055035;28;20110;-61
2021/12/06 05:55:00;;;;;;;42.25;24.00;;;;;;;0.67;100.00;101302.41;5055266;28;20025;-61
2021/12/06 05:57:25;;;;;;;38.05;24.13;;;;;;;0.64;100.00;101302.03;5053636;28;20021;-59
2021/12/06 05:59:50;;;;;;;42.47;24.92;;;;;;;0.60;100.00;101310.69;5054994;28;20080;-60
2021/12/06 06:02:17;;;;;;;40.50;24.33;;;;;;;0.58;99.85;101320.97;5055042;28;20031;-60
2021/12/06 06:04:43;;;;;;;41.85;25.48;;;;;;;0.56;100.00;101322.25;5054895;28;20361;-62
2021/12/06 06:07:08;;;;;;;40.35;24.48;;;;;;;0.50;99.90;101321.25;5054611;28;20028;-60
2021/12/06 06:09:34;;;;;;;39.90;23.23;;;;;;;0.44;99.74;101323.00;5054783;28;20108;-61
2021/12/06 06:12:00;;;;;;;42.90;23.73;;;;;;;0.41;100.00;101326.16;5053902;28;20391;-61
2021/12/06 06:14:25;;;;;;;40.53;23.73;;;;;;;0.39;99.93;101330.19;5054812;28;20044;-59
2021/12/06 06:16:52;;;;;;;42.88;24.70;;;;;;;0.40;100.00;101340.00;5054677;28;20476;-60
2021/12/06 06:19:22;;;;;;;40.30;23.00;;;;;;;0.40;100.00;101338.09;5054596;28;20037;-60
2021/12/06 06:21:48;;;;;;;41.33;22.30;;;;;;;0.47;100.00;101343.47;5054507;28;20116;-59
2021/12/06 06:24:14;;;;;;;41.40;22.58;;;;;;;0.51;100.00;101341.13;5054576;28;20025;-58
2021/12/06 06:26:40;;;;;;;42.05;22.67;;;;;;;0.54;100.00;101343.41;5052950;28;20079;-57
2021/12/06 06:29:06;;;;;;;41.42;23.38;;;;;;;0.55;100.00;101337.72;5054142;28;20499;-60
2021/12/06 06:31:32;;;;;;;42.92;24.02;;;;;;;0.59;100.00;101347.13;5054001;28;20025;-58
2021/12/06 06:33:57;;;;;;;50.35;24.40;;;;;;;0.62;100.00;101351.28;5054036;28;20492;-60
2021/12/06 06:36:22;;;;;;;48.88;24.60;;;;;;;0.64;100.00;101348.31;5054343;28;20032;-60
2021/12/06 06:38:48;;;;;;;54.38;23.17;;;;;;;0.66;100.00;101352.50;5054090;28;20037;-58
2021/12/06 06:41:13;;;;;;;53.83;23.48;;;;;;;0.69;100.00;101348.50;5053398;28;20484;-59
2021/12/06 06:43:38;;;;;;;97.88;25.48;;;;;;;0.72;100.00;101348.00;5053592;28;20061;-60
2021/12/06 06:46:05;;;;;;;66.82;24.08;;;;;;;0.74;100.00;101356.78;5054127;28;20139;-59
2021/12/06 06:48:31;;;;;;;82.57;24.27;;;;;;;0.74;100.00;101349.47;5052648;28;20465;-62
2021/12/06 06:50:57;;;;;;;64.57;24.05;;;;;;;0.77;100.00;101346.28;5053974;28;20041;-62
2021/12/06 06:53:22;;;;;;;105.10;25.48;;;;;;;0.78;100.00;101355.28;5053971;28;20029;-61
2021/12/06 06:55:47;;;;;;;109.18;26.17;;;;;;;0.79;100.00;101351.50;5053874;28;20533;-61
2021/12/06 06:58:13;;;;;;;116.88;27.23;;;;;;;0.78;100.00;101356.09;5053640;28;20032;-62
2021/12/06 07:00:39;;;;;;;95.72;26.23;;;;;;;0.76;100.00;101350.06;5053906;28;20044;-61
2021/12/06 07:03:07;;;;;;;71.78;22.70;;;;;;;0.80;100.00;101364.06;5052416;28;20562;-61
2021/12/06 07:05:33;;;;;;;105.25;24.05;;;;;;;0.77;100.00;101370.78;5053952;28;20108;-61
2021/12/06 07:07:58;;;;;;;80.15;22.80;;;;;;;0.76;100.00;101368.28;5053506;28;20100;-61
2021/12/06 07:10:24;;;;;;;90.55;22.67;;;;;;;0.74;100.00;101364.97;5052922;28;20445;-60
2021/12/06 07:12:52;;;;;;;71.68;20.63;;;;;;;0.78;100.00;101367.00;5052936;28;20111;-61
2021/12/06 07:15:24;;;;;;;80.93;22.88;;;;;;;0.70;100.00;101347.44;5053293;28;20109;-61
2021/12/06 07:17:51;;;;;;;82.47;23.08;;;;;;;0.82;100.00;101366.56;5051885;28;20408;-60
2021/12/06 07:20:17;;;;;;;61.28;22.30;;;;;;;0.85;100.00;101377.00;5053354;28;20511;-59
2021/12/06 07:22:43;;;;;;;72.15;22.05;;;;;;;0.86;100.00;101374.03;5053376;28;20086;-60
2021/12/06 07:25:13;;;;;;;53.33;21.85;;;;;;;0.84;100.00;101368.00;5052691;28;20108;-58
2021/12/06 07:27:39;;;;;;;47.42;21.92;;;;;;;0.93;100.00;101384.88;5052087;28;20033;-62
2021/12/06 07:30:06;;;;;;;53.75;23.38;;;;;;;0.96;100.00;101389.84;5053343;28;20078;-61
2021/12/06 07:32:31;;;;;;;52.28;22.30;;;;;;;0.99;100.00;101386.66;5053202;28;20032;-61
2021/12/06 07:34:57;;;;;;;42.92;22.55;;;;;;;1.05;100.00;101391.19;5053157;28;20029;-61
2021/12/06 07:37:22;;;;;;;41.45;22.73;;;;;;;1.09;100.00;101394.28;5053275;28;20415;-60
2021/12/06 07:39:48;;;;;;;48.05;22.17;;;;;;;1.11;100.00;101392.19;5052962;28;20036;-60
2021/12/06 07:42:13;;;;;;;50.78;22.02;;;;;;;1.13;100.00;101383.78;5031227;28;20080;-60
2021/12/06 07:44:41;;;;;;;47.55;22.38;;;;;;;1.12;100.00;101406.66;5031061;28;20056;-59
2021/12/06 07:47:08;;;;;;;55.80;23.40;;;;;;;1.11;100.00;101405.78;5038356;28;20055;-60
2021/12/06 07:49:33;;;;;;;63.78;25.20;;;;;;;1.11;100.00;101410.44;5051072;28;20048;-60
2021/12/06 07:51:58;;;;;;;58.47;24.15;;;;;;;1.14;100.00;101407.22;5049523;28;20499;-60
2021/12/06 07:54:24;;;;;;;62.78;24.38;;;;;;;1.12;100.00;101401.19;5050023;28;20041;-61
2021/12/06 07:56:49;;;;;;;62.90;25.48;;;;;;;1.15;100.00;101400.72;5050660;28;20533;-59
2021/12/06 07:59:15;;;;;;;49.67;25.30;;;;;;;1.17;100.00;101387.69;5050966;28;20040;-59
2021/12/06 08:01:40;;;;;;;53.60;24.65;;;;;;;1.17;100.00;101379.53;5051361;28;20501;-60
2021/12/06 08:04:06;;;;;;;50.47;25.27;;;;;;;1.22;100.00;101382.41;5050987;28;20025;-60
2021/12/06 08:06:32;;;;;;;65.55;24.42;;;;;;;1.24;100.00;101388.44;5050763;28;20033;-60
2021/12/06 08:08:58;;;;;;;60.58;25.42;;;;;;;1.26;100.00;101378.16;5050261;28;20032;-60
2021/12/06 08:11:25;;;;;;;75.80;27.83;;;;;;;1.26;100.00;101380.06;5048931;28;20364;-60
2021/12/06 08:13:54;;;;;;;70.97;27.70;;;;;;;1.28;100.00;101380.63;5052946;28;20067;-61
2021/12/06 08:16:24;;;;;;;82.85;28.50;;;;;;;1.18;100.00;101359.38;5052644;28;20017;-61
2021/12/06 08:18:50;;;;;;;67.45;28.92;;;;;;;1.30;100.00;101370.34;5052661;28;20036;-61
2021/12/06 08:21:18;;;;;;;85.03;27.85;;;;;;;1.27;100.00;101358.00;5052778;28;20116;-61
2021/12/06 08:23:44;;;;;;;89.78;27.42;;;;;;;1.34;100.00;101360.66;5052517;28;20021;-61
2021/12/06 08:26:11;;;;;;;64.57;28.48;;;;;;;1.42;100.00;101373.13;5052825;28;20033;-61
2021/12/06 08:28:37;;;;;;;62.53;25.65;;;;;;;1.49;100.00;101376.59;5052647;28;20083;-59
2021/12/06 08:31:05;;;;;;;71.38;27.73;;;;;;;1.48;100.00;101366.72;5052543;28;20032;-61
2021/12/06 08:33:31;;;;;;;70.28;26.10;;;;;;;1.51;100.00;101375.28;5053051;28;20029;-61
2021/12/06 08:35:57;;;;;;;88.20;28.83;;;;;;;1.54;100.00;101371.25;5055137;28;20503;-61
2021/12/06 08:38:26;;;;;;;111.88;28.70;;;;;;;1.46;100.00;101368.84;5056359;28;20120;-61
2021/12/06 08:40:53;;;;;;;75.20;29.83;;;;;;;1.55;100.00;101383.81;5056184;28;20095;-60
2021/12/06 08:43:19;;;;;;;88.80;27.70;;;;;;;1.53;100.00;101386.78;5056192;28;20083;-60
2021/12/06 08:45:51;;;;;;;75.90;26.08;;;;;;;1.55;100.00;101392.84;5057081;28;20415;-60
2021/12/06 08:48:18;;;;;;;54.20;26.27;;;;;;;1.55;100.00;101390.13;5056068;28;20041;-60
2021/12/06 08:50:44;;;;;;;91.95;27.13;;;;;;;1.55;100.00;101397.47;5056288;28;20025;-60
2021/12/06 08:53:10;;;;;;;91.72;25.88;;;;;;;1.51;100.00;101404.47;5056329;28;20528;-60
2021/12/06 08:55:35;;;;;;;81.72;27.52;;;;;;;1.51;100.00;101405.28;5056412;28;20053;-60
2021/12/06 08:58:03;;;;;;;146.20;39.00;;;;;;;1.51;100.00;101408.00;5056133;28;20127;-61
2021/12/06 09:00:31;;;;;;;65.72;26.23;;;;;;;1.52;100.00;101400.63;5056046;28;20045;-60
2021/12/06 09:02:57;;;;;;;59.90;26.13;;;;;;;1.48;100.00;101418.53;5055956;28;20033;-61
2021/12/06 09:05:27;;;;;;;72.10;24.50;;;;;;;1.40;100.00;101397.88;5055948;28;20029;-60
2021/12/06 09:07:53;;;;;;;59.40;26.05;;;;;;;1.47;100.00;101414.16;5056045;28;20025;-61
2021/12/06 09:10:19;;;;;;;49.67;25.88;;;;;;;1.48;100.00;101416.63;5056033;28;20025;-60
2021/12/06 09:12:45;;;;;;;52.50;25.35;;;;;;;1.47;100.00;101406.78;5055998;28;20037;-60
2021/12/06 09:15:14;;;;;;;59.97;27.58;;;;;;;1.53;100.00;101414.06;5054440;28;20025;-60
2021/12/06 09:17:40;;;;;;;68.45;28.08;;;;;;;1.52;100.00;101414.28;5056097;28;20036;-60
2021/12/06 09:20:08;;;;;;;65.38;27.55;;;;;;;1.56;100.00;101412.75;5055587;28;20039;-60
2021/12/06 09:22:34;;;;;;;56.53;26.40;;;;;;;1.59;100.00;101415.03;5055520;28;20021;-61
2021/12/06 09:24:59;;;;;;;61.75;26.98;;;;;;;1.63;100.00;101410.75;5055662;28;20028;-60
2021/12/06 09:27:25;;;;;;;87.20;33.90;;;;;;;1.66;100.00;101418.50;5055555;28;20033;-60
2021/12/06 09:29:50;;;;;;;62.28;30.70;;;;;;;1.64;100.00;101420.63;5055518;28;20029;-60
2021/12/06 09:32:16;;;;;;;54.30;27.30;;;;;;;1.67;100.00;101416.59;5055702;28;20036;-61
2021/12/06 09:34:44;;;;;;;63.20;28.80;;;;;;;1.67;100.00;101414.69;5055504;28;20116;-60
2021/12/06 09:37:10;;;;;;;63.50;29.02;;;;;;;1.61;100.00;101412.88;5054334;28;20074;-61
2021/12/06 09:39:36;;;;;;;63.17;28.73;;;;;;;1.59;100.00;101420.50;5055433;28;20025;-60
2021/12/06 09:42:02;;;;;;;77.97;32.83;;;;;;;1.60;100.00;101415.84;5055428;28;20400;-61
2021/12/06 09:44:28;;;;;;;69.10;29.13;;;;;;;1.61;100.00;101412.06;5055298;28;20040;-60
2021/12/06 09:46:53;;;;;;;64.90;30.90;;;;;;;1.61;100.00;101410.16;5054568;28;20029;-60
2021/12/06 09:49:21;;;;;;;64.93;27.05;;;;;;;1.65;100.00;101416.00;5055275;28;20040;-61
2021/12/06 09:51:51;;;;;;;61.30;28.08;;;;;;;1.64;100.00;101406.16;5055331;28;20023;-61
2021/12/06 09:54:21;;;;;;;56.97;28.50;;;;;;;1.63;100.00;101408.03;5054994;28;20035;-61
2021/12/06 09:56:48;;;;;;;73.13;30.15;;;;;;;1.65;100.00;101416.00;5055072;28;20025;-59
2021/12/06 09:59:18;;;;;;;67.97;29.40;;;;;;;1.67;100.00;101402.94;5054869;28;20122;-59
2021/12/06 10:01:51;;;;;;;69.60;30.02;;;;;;;1.70;100.00;101418.84;5055243;28;20049;-60
2021/12/06 10:04:19;;;;;;;59.28;27.58;;;;;;;1.65;100.00;101399.63;5055106;28;20063;-61
2021/12/06 10:06:47;;;;;;;72.03;26.52;;;;;;;1.81;100.00;101415.34;5053591;28;20025;-61
2021/12/06 10:09:15;;;;;;;62.45;27.27;;;;;;;1.73;100.00;101406.63;5054913;28;20017;-60
2021/12/06 10:11:41;;;;;;;62.42;28.73;;;;;;;1.78;100.00;101410.34;5055005;28;20403;-61
2021/12/06 10:14:07;;;;;;;59.78;28.65;;;;;;;1.81;100.00;101412.59;5055017;28;20032;-61
2021/12/06 10:16:33;;;;;;;59.53;29.55;;;;;;;1.80;100.00;101401.91;5054696;28;20024;-60
2021/12/06 10:18:59;;;;;;;51.28;27.65;;;;;;;1.80;100.00;101391.84;5054530;28;20135;-61
2021/12/06 10:21:27;;;;;;;60.25;27.58;;;;;;;1.83;100.00;101387.81;5054573;28;20099;-60
2021/12/06 10:23:53;;;;;;;60.50;29.45;;;;;;;1.86;100.00;101381.88;5054702;28;20111;-61
2021/12/06 10:26:24;;;;;;;73.90;39.00;;;;;;;1.92;100.00;101372.75;5054682;28;20116;-61
2021/12/06 10:28:55;;;;;;;52.35;26.98;;;;;;;1.91;100.00;101373.81;5054636;28;20025;-61
2021/12/06 10:31:21;;;;;;;55.35;27.92;;;;;;;1.92;100.00;101367.31;5054717;28;20072;-61
2021/12/06 10:33:48;;;;;;;54.35;27.25;;;;;;;1.90;100.00;101350.31;5054392;28;20060;-60
2021/12/06 10:36:16;;;;;;;60.60;29.60;;;;;;;1.97;100.00;101361.13;5054258;28;20047;-60
2021/12/06 10:38:47;;;;;;;65.75;29.23;;;;;;;1.92;100.00;101352.84;5054361;28;20052;-60
2021/12/06 10:41:17;;;;;;;59.53;28.10;;;;;;;1.98;100.00;101374.56;5054048;28;20041;-60
2021/12/06 10:43:59;;;;;;;54.72;28.10;;;;;;;1.95;100.00;101361.38;5054291;28;20021;-60
2021/12/06 10:46:27;;;;;;;51.00;24.85;;;;;;;2.00;100.00;101369.69;5054149;28;20448;-60
2021/12/06 10:48:56;;;;;;;53.58;28.60;;;;;;;1.98;100.00;101351.88;5053990;28;20025;-60
2021/12/06 10:51:23;;;;;;;49.38;26.85;;;;;;;1.99;100.00;101338.00;5054348;28;20384;-62
2021/12/06 10:54:02;;;;;;;50.63;26.73;;;;;;;2.00;100.00;101330.66;5052683;28;20143;-60
2021/12/06 10:56:45;;;;;;;61.10;28.38;;;;;;;1.95;100.00;101325.91;5053844;28;20021;-60
2021/12/06 10:59:17;;;;;;;45.80;22.95;;;;;;;1.94;100.00;101324.25;5052983;28;20445;-60
2021/12/06 11:01:45;;;;;;;47.72;24.67;;;;;;;1.99;100.00;101327.06;5053991;28;20021;-60
2021/12/06 11:04:14;;;;;;;47.67;22.85;;;;;;;2.01;100.00;101318.66;5054001;28;20053;-60
2021/12/06 11:06:46;;;;;;;43.38;21.60;;;;;;;2.03;100.00;101311.91;5053782;28;20078;-60
2021/12/06 11:09:18;;;;;;;41.10;21.25;;;;;;;2.02;100.00;101310.25;5053751;28;20025;-60
2021/12/06 11:11:50;;;;;;;46.10;21.38;;;;;;;1.99;99.96;101302.50;5053570;28;20025;-60
2021/12/06 11:14:21;;;;;;;42.72;19.02;;;;;;;2.01;99.00;101289.47;5053753;28;20024;-60
2021/12/06 11:16:53;;;;;;;44.22;19.77;;;;;;;2.06;98.34;101296.94;5053649;28;20028;-60
2021/12/06 11:19:22;;;;;;;45.35;21.15;;;;;;;2.15;99.12;101303.69;5054019;28;20530;-60
2021/12/06 11:21:54;;;;;;;44.53;20.63;;;;;;;2.10;97.97;101289.97;5053237;28;20460;-60
2021/12/06 11:24:39;;;;;;;42.92;21.75;;;;;;;2.13;98.01;101291.38;5053364;28;20053;-60